Elka Eleftheria — ELZP9 — position and weather

sailwx.info

Track history (hours):
 
Tides and Currents Weather Stations Pressure Air Temp Water Temp Dewpoint Dewpoint Depression Visibility Wind Speed Wind Dir Waves Ship Positions

Elka Eleftheria

Last reported at 2018-Jun-22 06:15 UTC. Time now 2018-Jun-25 01:58 UTC.
Position S 32°43' W 071°37'.

Length 183 m; draft 9 m.

Type: Ship. MMSI: 636011496.

Date/timePositionNaut miles runAvg speedWind from/ knotsBaromVisibWave heightAir tempDewpointWater temp
2018-Jun-22 06:15S 32°43' W 071°37'311.6
2018-Jun-22 05:58S 32°44' W 071°34'3 6.8
2018-Jun-22 05:27S 32°46' W 071°30'0 0.0
2018-Jun-21 11:46S 32°46' W 071°30'0 0.0
2018-Jun-21 08:49S 32°46' W 071°30'0 0.5
2018-Jun-21 08:25S 32°46' W 071°30'1 3.3
2018-Jun-21 07:58S 32°45' W 071°31'0 0.1
2018-Jun-21 07:26S 32°45' W 071°31'0 0.0
2018-Jun-21 06:53S 32°45' W 071°31'0 0.0
2018-Jun-21 06:29S 32°45' W 071°31'0 0.0
2018-Jun-21 05:59S 32°45' W 071°31'0 0.0
2018-Jun-21 05:29S 32°45' W 071°31'0 0.0
2018-Jun-21 04:59S 32°45' W 071°31'0 0.0
2018-Jun-21 04:29S 32°45' W 071°31'0 0.0
2018-Jun-21 03:53S 32°45' W 071°31'0 0.0
2018-Jun-20 22:35S 32°45' W 071°31'0 0.1
2018-Jun-20 22:29S 32°45' W 071°31'0 0.0
2018-Jun-20 21:49S 32°45' W 071°31'0 0.0
2018-Jun-20 19:16S 32°45' W 071°31'0 0.0
2018-Jun-20 18:46S 32°45' W 071°31'0 0.0
2018-Jun-20 18:28S 32°45' W 071°31'0 0.0
2018-Jun-20 17:49S 32°45' W 071°31'0 0.0
2018-Jun-20 17:28S 32°45' W 071°31'0 0.0
2018-Jun-20 16:55S 32°45' W 071°31'0 0.0
2018-Jun-20 16:28S 32°45' W 071°31'0 0.0
2018-Jun-20 16:01S 32°45' W 071°31'0 0.0
2018-Jun-20 15:25S 32°45' W 071°31'0 0.0
2018-Jun-20 14:55S 32°45' W 071°31'0 0.0
2018-Jun-20 14:25S 32°45' W 071°31'0 0.0
2018-Jun-20 13:58S 32°45' W 071°31'0 0.0
2018-Jun-20 13:28S 32°45' W 071°31'0 0.0
2018-Jun-20 12:58S 32°45' W 071°31'0 0.0
2018-Jun-20 12:13S 32°45' W 071°31'0 0.0
2018-Jun-20 11:52S 32°45' W 071°31'0 0.0
2018-Jun-20 11:19S 32°45' W 071°31'0 0.0
2018-Jun-20 05:18S 32°45' W 071°31'0 0.0
2018-Jun-20 04:51S 32°45' W 071°31'0 0.0
2018-Jun-20 04:24S 32°45' W 071°31'0 0.0
2018-Jun-20 04:00S 32°45' W 071°31'0 0.0
2018-Jun-20 03:27S 32°45' W 071°31'0 0.0
2018-Jun-20 02:39S 32°45' W 071°31'0 0.0
2018-Jun-19 22:35S 32°45' W 071°31'0 0.1
2018-Jun-19 22:29S 32°45' W 071°31'0 0.0
2018-Jun-19 20:13S 32°45' W 071°31'5 0.4
2018-Jun-19 08:22S 32°45' W 071°36'4 9.9
2018-Jun-19 07:55S 32°46' W 071°41'410.1
2018-Jun-19 07:30S 32°47' W 071°46'  
2018-Jun-14 13:56S 32°53' W 071°47'612.5
2018-Jun-14 13:29S 32°49' W 071°42'612.0
2018-Jun-14 13:00S 32°44' W 071°38'510.2
2018-Jun-14 12:30S 32°45' W 071°32'1 0.0
2018-Jun-12 21:01S 32°45' W 071°30'0 1.9
2018-Jun-12 20:59S 32°45' W 071°30'6 5.3
2018-Jun-12 19:50S 32°45' W 071°37'610.2
2018-Jun-12 19:13S 32°41' W 071°44'1 5.4
2018-Jun-12 19:00S 32°41' W 071°43'710.5
2018-Jun-12 18:21S 32°47' W 071°44'412.1
2018-Jun-12 18:00S 32°49' W 071°49'5 2.1
2018-Jun-12 15:41S 32°50' W 071°54'0 0.8
2018-Jun-12 15:30S 32°50' W 071°54'1 0.5
2018-Jun-12 13:59S 32°49' W 071°55'2 1.9
2018-Jun-12 12:46S 32°50' W 071°57'1 4.1
2018-Jun-12 12:30S 32°51' W 071°58'1 1.6
2018-Jun-12 11:59S 32°52' W 071°59'2 4.2
2018-Jun-12 11:25S 32°51' W 071°56'2 4.3
2018-Jun-12 10:58S 32°51' W 071°54'2 4.6
2018-Jun-12 10:30S 32°50' W 071°51'3 4.5
2018-Jun-12 09:55S 32°50' W 071°48'3 4.2
2018-Jun-12 09:19S 32°49' W 071°46'1 4.2
2018-Jun-12 09:00S 32°48' W 071°44'2 4.1
2018-Jun-12 08:30S 32°47' W 071°42'2 3.9
2018-Jun-12 07:59S 32°46' W 071°40'4 3.6
2018-Jun-12 06:50S 32°42' W 071°42'  
Track history (hours):
 
Tides and Currents Weather Stations Pressure Air Temp Water Temp Dewpoint Dewpoint Depression Visibility Wind Speed Wind Dir Waves Ship Positions

Elka Eleftheria

Last reported at 2018-Jun-22 06:15 UTC. Time now 2018-Jun-25 01:58 UTC.
Position S 32°43' W 071°37'.

Length 183 m; draft 9 m.

Type: Ship. MMSI: 636011496.

Date/timePositionNaut miles runAvg speedWind from/ knotsBaromVisibWave heightAir tempDewpointWater temp
2018-Jun-22 06:15S 32°43' W 071°37'311.6
2018-Jun-22 05:58S 32°44' W 071°34'3 6.8
2018-Jun-22 05:27S 32°46' W 071°30'0 0.0
2018-Jun-21 11:46S 32°46' W 071°30'0 0.0
2018-Jun-21 08:49S 32°46' W 071°30'0 0.5
2018-Jun-21 08:25S 32°46' W 071°30'1 3.3
2018-Jun-21 07:58S 32°45' W 071°31'0 0.1
2018-Jun-21 07:26S 32°45' W 071°31'0 0.0
2018-Jun-21 06:53S 32°45' W 071°31'0 0.0
2018-Jun-21 06:29S 32°45' W 071°31'0 0.0
2018-Jun-21 05:59S 32°45' W 071°31'0 0.0
2018-Jun-21 05:29S 32°45' W 071°31'0 0.0
2018-Jun-21 04:59S 32°45' W 071°31'0 0.0
2018-Jun-21 04:29S 32°45' W 071°31'0 0.0
2018-Jun-21 03:53S 32°45' W 071°31'0 0.0
2018-Jun-20 22:35S 32°45' W 071°31'0 0.1
2018-Jun-20 22:29S 32°45' W 071°31'0 0.0
2018-Jun-20 21:49S 32°45' W 071°31'0 0.0
2018-Jun-20 19:16S 32°45' W 071°31'0 0.0
2018-Jun-20 18:46S 32°45' W 071°31'0 0.0
2018-Jun-20 18:28S 32°45' W 071°31'0 0.0
2018-Jun-20 17:49S 32°45' W 071°31'0 0.0
2018-Jun-20 17:28S 32°45' W 071°31'0 0.0
2018-Jun-20 16:55S 32°45' W 071°31'0 0.0
2018-Jun-20 16:28S 32°45' W 071°31'0 0.0
2018-Jun-20 16:01S 32°45' W 071°31'0 0.0
2018-Jun-20 15:25S 32°45' W 071°31'0 0.0
2018-Jun-20 14:55S 32°45' W 071°31'0 0.0
2018-Jun-20 14:25S 32°45' W 071°31'0 0.0
2018-Jun-20 13:58S 32°45' W 071°31'0 0.0
2018-Jun-20 13:28S 32°45' W 071°31'0 0.0
2018-Jun-20 12:58S 32°45' W 071°31'0 0.0
2018-Jun-20 12:13S 32°45' W 071°31'0 0.0
2018-Jun-20 11:52S 32°45' W 071°31'0 0.0
2018-Jun-20 11:19S 32°45' W 071°31'0 0.0
2018-Jun-20 05:18S 32°45' W 071°31'0 0.0
2018-Jun-20 04:51S 32°45' W 071°31'0 0.0
2018-Jun-20 04:24S 32°45' W 071°31'0 0.0
2018-Jun-20 04:00S 32°45' W 071°31'0 0.0
2018-Jun-20 03:27S 32°45' W 071°31'0 0.0
2018-Jun-20 02:39S 32°45' W 071°31'0 0.0
2018-Jun-19 22:35S 32°45' W 071°31'0 0.1
2018-Jun-19 22:29S 32°45' W 071°31'0 0.0
2018-Jun-19 20:13S 32°45' W 071°31'5 0.4
2018-Jun-19 08:22S 32°45' W 071°36'4 9.9
2018-Jun-19 07:55S 32°46' W 071°41'410.1
2018-Jun-19 07:30S 32°47' W 071°46'  
2018-Jun-14 13:56S 32°53' W 071°47'612.5
2018-Jun-14 13:29S 32°49' W 071°42'612.0
2018-Jun-14 13:00S 32°44' W 071°38'510.2
2018-Jun-14 12:30S 32°45' W 071°32'1 0.0
2018-Jun-12 21:01S 32°45' W 071°30'0 1.9
2018-Jun-12 20:59S 32°45' W 071°30'6 5.3
2018-Jun-12 19:50S 32°45' W 071°37'610.2
2018-Jun-12 19:13S 32°41' W 071°44'1 5.4
2018-Jun-12 19:00S 32°41' W 071°43'710.5
2018-Jun-12 18:21S 32°47' W 071°44'412.1
2018-Jun-12 18:00S 32°49' W 071°49'5 2.1
2018-Jun-12 15:41S 32°50' W 071°54'0 0.8
2018-Jun-12 15:30S 32°50' W 071°54'1 0.5
2018-Jun-12 13:59S 32°49' W 071°55'2 1.9
2018-Jun-12 12:46S 32°50' W 071°57'1 4.1
2018-Jun-12 12:30S 32°51' W 071°58'1 1.6
2018-Jun-12 11:59S 32°52' W 071°59'2 4.2
2018-Jun-12 11:25S 32°51' W 071°56'2 4.3
2018-Jun-12 10:58S 32°51' W 071°54'2 4.6
2018-Jun-12 10:30S 32°50' W 071°51'3 4.5
2018-Jun-12 09:55S 32°50' W 071°48'3 4.2
2018-Jun-12 09:19S 32°49' W 071°46'1 4.2
2018-Jun-12 09:00S 32°48' W 071°44'2 4.1
2018-Jun-12 08:30S 32°47' W 071°42'2 3.9
2018-Jun-12 07:59S 32°46' W 071°40'4 3.6
2018-Jun-12 06:50S 32°42' W 071°42'  

Dump ship's entire track history